Kezdőlap
METAR-TAF:

METAR-TAF

Repülőterek :

Waseca Municipal Airport

Waseca, Minnesota, Amerikai Egyesült Államok

földrajzi szélesség: 44-04-24N, földrajzi hosszúság: 093-33-11W, magasság: 343 m

Jelenlegi meteorológiai megfigyelések

A jelentés 15 perccel ezelõtt készült, 19:35 UTC
Észak-északnyugati szél 15 kt széllökések: 19 kt
Hőmérséklet 3°C
Páratartalom 70%
Légköri nyomás 1011 hPa
Látótávolság: 16.1 km
Szakadozott felhőzet 3100 lábon
Szakadozott felhőzet 5000 lábon
Szakadozott felhőzet 7000 lábon

METAR: KACQ 231935Z AUTO 34015G19KT 10SM BKN031 BKN050 BKN070 03/M02 A2984 RMK AO2

Idő: 13:50 (19:50 UTC)


TAF: hiányzik

Meteorológiai megfigyelések és előrejelzések több, mint 4000 repülőtéren (METAR és TAF jelentéseket).

A térképen piros és sárga pontok jelzik az elérhető meteorológiai állomásokat.

Mozgassa az egeret a pont fölött, hogy megjelenjen az állomás neve.

Azután kattintson az időjárási megfigyelések és előrejelzések megtekintéséhez.

A térkép megváltoztatása: kattintson a fekete keresztel jelölt zöld gombra ráközelítéshez, a vonallal jelölt zöld gombra távolításhoz, vagy a zöld nyilakra a szomszédos térképek eléréséhez.


METAR-TAF: